createdAt,value
2022-10-06T00:00:52.571Z,94.024658
2022-10-06T00:02:01.316Z,94.122314
2022-10-06T00:03:09.994Z,93.920898
2022-10-06T00:04:19.719Z,94.024658
2022-10-06T00:05:27.410Z,94.024658
2022-10-06T00:06:35.091Z,94.024658
2022-10-06T00:07:44.842Z,94.024658
2022-10-06T00:08:53.550Z,93.817139
2022-10-06T00:10:02.313Z,93.615723
2022-10-06T00:11:11.039Z,93.713379
2022-10-06T00:12:20.797Z,93.713379
2022-10-06T00:13:30.575Z,93.310547
2022-10-06T00:14:40.314Z,93.310547
2022-10-06T00:15:48.072Z,93.310547
2022-10-06T00:16:57.720Z,93.310547
2022-10-06T00:18:06.452Z,92.999268
2022-10-06T00:19:15.223Z,92.755127
2022-10-06T00:20:24.073Z,92.858887
2022-10-06T00:21:32.761Z,92.547607
2022-10-06T00:22:41.480Z,92.346191
2022-10-06T00:23:50.213Z,92.449951
2022-10-06T00:24:57.951Z,92.346191
2022-10-06T00:26:07.715Z,92.492676
2022-10-06T00:27:16.415Z,92.590332
2022-10-06T00:28:25.318Z,92.492676
2022-10-06T00:29:34.861Z,92.242432
2022-10-06T00:30:43.648Z,91.73584
2022-10-06T00:31:53.316Z,91.52832
2022-10-06T00:33:02.018Z,91.07666
2022-10-06T00:34:09.716Z,90.979004
2022-10-06T00:35:18.417Z,90.875244
2022-10-06T00:36:28.144Z,90.875244
2022-10-06T00:37:37.831Z,90.875244
2022-10-06T00:38:46.540Z,90.673828
2022-10-06T00:39:56.219Z,90.570068
2022-10-06T00:41:05.902Z,90.057373
2022-10-06T00:42:14.670Z,90.264893
2022-10-06T00:43:22.402Z,89.959717
2022-10-06T00:44:32.093Z,89.550781
2022-10-06T00:45:40.847Z,89.752197
2022-10-06T00:46:50.521Z,89.855957
2022-10-06T00:47:59.241Z,89.752197
2022-10-06T00:49:07.911Z,89.855957
2022-10-06T00:50:16.586Z,89.959717
2022-10-06T00:51:24.280Z,90.161133
2022-10-06T00:52:31.969Z,90.362549
2022-10-06T00:53:41.700Z,90.161133
2022-10-06T00:54:50.381Z,90.161133
2022-10-06T00:55:59.059Z,90.161133
2022-10-06T00:57:07.808Z,90.362549
2022-10-06T00:58:16.482Z,90.362549
2022-10-06T00:59:26.334Z,90.362549
2022-10-06T01:00:34.131Z,90.362549
2022-10-06T01:01:42.890Z,90.612793
2022-10-06T01:02:52.545Z,90.710449
2022-10-06T01:04:01.195Z,90.612793
2022-10-06T01:05:10.944Z,90.362549
2022-10-06T01:06:19.622Z,90.161133
2022-10-06T01:07:28.313Z,90.161133
2022-10-06T01:08:38.014Z,89.959717
2022-10-06T01:09:45.712Z,90.264893
2022-10-06T01:10:55.453Z,89.959717
2022-10-06T01:12:02.167Z,89.959717
2022-10-06T01:13:09.842Z,90.057373
2022-10-06T01:14:19.547Z,90.057373
2022-10-06T01:15:28.302Z,90.307617
2022-10-06T01:16:37.036Z,90.710449
2022-10-06T01:17:45.814Z,90.814209
2022-10-06T01:18:54.473Z,91.021729
2022-10-06T01:20:04.241Z,91.265869
2022-10-06T01:21:11.925Z,91.571045
2022-10-06T01:22:19.675Z,91.674805
2022-10-06T01:23:29.368Z,91.778564
2022-10-06T01:24:38.107Z,91.876221
2022-10-06T01:25:46.810Z,91.97998
2022-10-06T01:26:55.500Z,91.97998
2022-10-06T01:28:04.281Z,91.97998
2022-10-06T01:29:13.939Z,91.876221
2022-10-06T01:30:22.625Z,91.571045
2022-10-06T01:31:31.460Z,91.223145
2022-10-06T01:32:41.072Z,91.021729
2022-10-06T01:33:49.945Z,90.814209
2022-10-06T01:34:59.647Z,90.710449
2022-10-06T01:36:09.430Z,90.612793
2022-10-06T01:37:19.087Z,90.509033
2022-10-06T01:38:29.024Z,90.509033
2022-10-06T01:39:36.549Z,90.307617
2022-10-06T01:40:44.265Z,90.203857
2022-10-06T01:41:53.966Z,90.100098
2022-10-06T01:43:02.639Z,89.855957
2022-10-06T01:44:11.339Z,89.855957
2022-10-06T01:45:20.046Z,89.648438
2022-10-06T01:46:28.748Z,89.550781
2022-10-06T01:47:38.436Z,89.447021
2022-10-06T01:48:47.227Z,89.343262
2022-10-06T01:49:54.929Z,88.934326
2022-10-06T01:51:04.647Z,88.83667
2022-10-06T01:52:13.327Z,88.73291
2022-10-06T01:53:22.048Z,88.531494
2022-10-06T01:54:29.730Z,88.62915
2022-10-06T01:55:39.430Z,88.427734
2022-10-06T01:56:49.169Z,88.427734
2022-10-06T01:57:57.915Z,88.323975
2022-10-06T01:59:05.620Z,88.62915
2022-10-06T02:00:14.324Z,88.323975
2022-10-06T02:01:23.056Z,88.220215
2022-10-06T02:02:32.862Z,88.323975
2022-10-06T02:03:41.574Z,88.220215
2022-10-06T02:04:50.405Z,88.079834
2022-10-06T02:06:00.167Z,87.976074
2022-10-06T02:07:09.811Z,87.774658
2022-10-06T02:08:17.505Z,87.469482
2022-10-06T02:09:27.219Z,87.670898
2022-10-06T02:10:36.925Z,87.469482
2022-10-06T02:11:46.614Z,87.365723
2022-10-06T02:12:55.367Z,87.567139
2022-10-06T02:14:04.097Z,87.670898
2022-10-06T02:15:13.805Z,87.469482
2022-10-06T02:16:22.516Z,87.567139
2022-10-06T02:17:30.168Z,87.365723
2022-10-06T02:18:39.846Z,87.469482
2022-10-06T02:19:48.552Z,87.365723
2022-10-06T02:20:57.221Z,87.365723
2022-10-06T02:22:05.949Z,87.567139
2022-10-06T02:23:14.649Z,87.774658
2022-10-06T02:24:24.355Z,87.670898
2022-10-06T02:25:32.049Z,87.878418
2022-10-06T02:26:41.739Z,87.878418
2022-10-06T02:27:51.430Z,87.976074
2022-10-06T02:29:00.143Z,87.976074
2022-10-06T02:30:08.838Z,88.323975
2022-10-06T02:31:18.611Z,88.079834
2022-10-06T02:32:27.269Z,88.220215
2022-10-06T02:33:37.020Z,88.323975
2022-10-06T02:34:45.726Z,88.323975
2022-10-06T02:35:54.437Z,88.73291
2022-10-06T02:37:04.217Z,88.934326
2022-10-06T02:38:12.939Z,88.83667
2022-10-06T02:39:22.609Z,89.038086
2022-10-06T02:40:31.335Z,89.038086
2022-10-06T02:41:40.019Z,89.038086
2022-10-06T02:42:49.778Z,88.934326
2022-10-06T02:43:57.547Z,88.83667
2022-10-06T02:45:05.241Z,88.83667
2022-10-06T02:46:15.068Z,88.62915
2022-10-06T02:47:23.597Z,88.62915
2022-10-06T02:48:32.766Z,88.427734
2022-10-06T02:49:41.057Z,88.531494
2022-10-06T02:50:49.798Z,88.73291
2022-10-06T02:51:59.484Z,88.73291
2022-10-06T02:53:08.192Z,88.83667
2022-10-06T02:54:15.912Z,88.934326
2022-10-06T02:55:25.590Z,88.934326
2022-10-06T02:56:35.279Z,89.038086
2022-10-06T02:57:43.966Z,89.245605
2022-10-06T02:58:51.653Z,89.343262
2022-10-06T03:00:00.371Z,89.648438
2022-10-06T03:01:10.061Z,89.447021
2022-10-06T03:02:18.951Z,89.447021
2022-10-06T03:03:26.495Z,89.593506
2022-10-06T03:04:36.225Z,89.691162
2022-10-06T03:05:44.963Z,89.794922
2022-10-06T03:06:54.701Z,90.203857
2022-10-06T03:08:03.413Z,90.203857
2022-10-06T03:09:13.179Z,90.307617
2022-10-06T03:10:22.922Z,90.405273
2022-10-06T03:11:31.646Z,90.307617
2022-10-06T03:12:41.361Z,90.509033
2022-10-06T03:13:51.104Z,90.710449
2022-10-06T03:14:58.825Z,90.612793
2022-10-06T03:16:08.537Z,90.753174
2022-10-06T03:17:17.244Z,90.856934
2022-10-06T03:18:26.403Z,90.753174
2022-10-06T03:19:34.677Z,91.265869
2022-10-06T03:20:44.356Z,91.571045
2022-10-06T03:21:54.063Z,91.674805
2022-10-06T03:23:02.789Z,91.778564
2022-10-06T03:24:12.466Z,91.821289
2022-10-06T03:25:22.150Z,91.821289
2022-10-06T03:26:30.838Z,91.61377
2022-10-06T03:27:40.504Z,91.571045
2022-10-06T03:28:49.330Z,91.473389
2022-10-06T03:29:57.874Z,91.412354
2022-10-06T03:31:07.608Z,91.717529
2022-10-06T03:32:15.245Z,92.022705
2022-10-06T03:33:23.033Z,92.126465
2022-10-06T03:34:32.777Z,92.230225
2022-10-06T03:35:42.488Z,92.431641
2022-10-06T03:36:51.228Z,92.5354
2022-10-06T03:38:00.082Z,92.5354
2022-10-06T03:39:08.752Z,92.327881
2022-10-06T03:40:18.625Z,92.327881
2022-10-06T03:41:26.319Z,92.370605
2022-10-06T03:42:34.010Z,92.681885
2022-10-06T03:43:43.718Z,92.578125
2022-10-06T03:44:53.424Z,92.681885
2022-10-06T03:46:02.139Z,92.987061
2022-10-06T03:47:16.195Z,93.09082
2022-10-06T03:48:20.516Z,92.681885
2022-10-06T03:49:29.212Z,92.779541
2022-10-06T03:50:36.981Z,92.883301
2022-10-06T03:51:44.717Z,93.09082
2022-10-06T03:52:54.454Z,93.188477
2022-10-06T03:54:04.144Z,93.395996
2022-10-06T03:55:12.842Z,93.292236
2022-10-06T03:56:21.547Z,93.237305
2022-10-06T03:57:31.257Z,93.438721
2022-10-06T03:58:41.022Z,93.438721
2022-10-06T03:59:50.690Z,93.09082
2022-10-06T04:01:00.599Z,93.09082
2022-10-06T04:02:10.321Z,92.987061
2022-10-06T04:03:19.015Z,92.578125
2022-10-06T04:04:28.678Z,92.169189
2022-10-06T04:05:38.726Z,91.821289
2022-10-06T04:06:47.496Z,91.412354
2022-10-06T04:07:57.210Z,91.308594
2022-10-06T04:09:06.050Z,91.308594
2022-10-06T04:10:15.753Z,91.308594
2022-10-06T04:11:25.459Z,90.899658
2022-10-06T04:12:35.351Z,90.594482
2022-10-06T04:13:44.194Z,90.698242
2022-10-06T04:14:57.845Z,90.795898
2022-10-06T04:16:03.696Z,90.594482
2022-10-06T04:17:13.374Z,90.795898
2022-10-06T04:18:21.054Z,90.594482
2022-10-06T04:19:27.746Z,90.490723
2022-10-06T04:20:37.501Z,90.795898
2022-10-06T04:21:46.206Z,90.795898
2022-10-06T04:22:54.949Z,90.838623
2022-10-06T04:24:04.656Z,90.942383
2022-10-06T04:25:13.364Z,91.149902
2022-10-06T04:26:23.672Z,91.247559
2022-10-06T04:27:32.357Z,91.351318
2022-10-06T04:28:41.127Z,91.558838
2022-10-06T04:29:50.824Z,91.601562
2022-10-06T04:31:00.545Z,91.699219
2022-10-06T04:32:10.275Z,91.699219
2022-10-06T04:33:19.007Z,92.010498
2022-10-06T04:34:27.719Z,92.010498
2022-10-06T04:35:37.447Z,92.010498
2022-10-06T04:36:46.122Z,92.010498
2022-10-06T04:37:54.860Z,92.315674
2022-10-06T04:39:04.570Z,92.108154
2022-10-06T04:40:13.236Z,91.906738
2022-10-06T04:41:22.983Z,91.906738
2022-10-06T04:42:35.030Z,91.802979
2022-10-06T04:43:42.488Z,91.601562
2022-10-06T04:44:52.232Z,91.351318
2022-10-06T04:46:00.013Z,91.247559
2022-10-06T04:47:09.712Z,91.247559
2022-10-06T04:48:19.327Z,91.046143
2022-10-06T04:49:30.260Z,91.192627
2022-10-06T04:50:40.163Z,91.290283
2022-10-06T04:51:48.876Z,91.290283
2022-10-06T04:52:57.537Z,91.394043
2022-10-06T04:54:07.207Z,91.601562
2022-10-06T04:55:15.908Z,91.601562
2022-10-06T04:56:24.590Z,91.497803
2022-10-06T04:57:34.269Z,91.601562
2022-10-06T04:58:42.978Z,92.010498
2022-10-06T04:59:51.665Z,91.845703
2022-10-06T05:01:00.438Z,92.053223
2022-10-06T05:02:09.207Z,92.053223
2022-10-06T05:03:18.836Z,92.462158
2022-10-06T05:04:27.515Z,92.462158
2022-10-06T05:05:35.174Z,91.802979
2022-10-06T05:06:42.864Z,91.601562
2022-10-06T05:07:52.548Z,91.290283
2022-10-06T05:09:02.221Z,91.290283
2022-10-06T05:10:10.885Z,91.192627
2022-10-06T05:11:25.074Z,90.838623
2022-10-06T05:12:31.240Z,91.088867
2022-10-06T05:13:40.924Z,90.985107
2022-10-06T05:14:50.608Z,90.783691
2022-10-06T05:15:58.313Z,90.637207
2022-10-06T05:17:07.926Z,91.046143
2022-10-06T05:18:17.671Z,91.864014
2022-10-06T05:19:27.298Z,91.290283
2022-10-06T05:20:35.966Z,91.601562
2022-10-06T05:21:45.648Z,91.497803
2022-10-06T05:22:54.303Z,91.192627
2022-10-06T05:24:04.028Z,91.290283
2022-10-06T05:25:12.713Z,92.053223
2022-10-06T05:26:20.401Z,92.150879
2022-10-06T05:27:30.070Z,92.254639
2022-10-06T05:28:38.796Z,92.150879
2022-10-06T05:29:47.540Z,92.254639
2022-10-06T05:30:57.208Z,92.254639
2022-10-06T05:32:06.884Z,92.053223
2022-10-06T05:33:16.566Z,91.845703
2022-10-06T05:34:24.268Z,91.949463
2022-10-06T05:35:32.937Z,91.290283
2022-10-06T05:36:43.632Z,91.088867
2022-10-06T05:37:52.304Z,90.985107
2022-10-06T05:39:01.992Z,90.472412
2022-10-06T05:40:10.691Z,90.020752
2022-10-06T05:41:20.386Z,89.819336
2022-10-06T05:42:30.084Z,89.611816
2022-10-06T05:43:38.744Z,89.575195
2022-10-06T05:44:47.474Z,89.471436
2022-10-06T05:45:57.282Z,89.575195
2022-10-06T05:47:07.082Z,89.263916
2022-10-06T05:48:15.757Z,89.367676
2022-10-06T05:49:24.411Z,89.367676
2022-10-06T05:50:33.093Z,89.575195
2022-10-06T05:51:42.749Z,89.367676
2022-10-06T05:52:53.449Z,89.471436
2022-10-06T05:54:02.117Z,89.776611
2022-10-06T05:55:10.825Z,89.880371
2022-10-06T05:56:20.508Z,89.978027
2022-10-06T05:57:29.252Z,89.978027
2022-10-06T05:58:38.866Z,90.332031
2022-10-06T05:59:48.539Z,90.429688
2022-10-06T06:00:58.209Z,90.185547
2022-10-06T06:02:05.992Z,90.289307
2022-10-06T06:03:13.550Z,90.386963
2022-10-06T06:04:23.264Z,90.386963
2022-10-06T06:05:31.917Z,90.386963
2022-10-06T06:06:40.605Z,90.386963
2022-10-06T06:07:50.265Z,89.880371
2022-10-06T06:08:58.933Z,90.081787
2022-10-06T06:10:08.630Z,89.978027
2022-10-06T06:11:16.314Z,89.776611
2022-10-06T06:12:24.981Z,89.776611
2022-10-06T06:13:34.686Z,89.263916
2022-10-06T06:14:43.344Z,89.227295
2022-10-06T06:15:52.139Z,89.019775
2022-10-06T06:17:00.842Z,88.916016
2022-10-06T06:18:09.470Z,89.324951
2022-10-06T06:19:19.165Z,88.879395
2022-10-06T06:20:29.801Z,89.080811
2022-10-06T06:21:37.478Z,89.080811
2022-10-06T06:22:47.189Z,89.18457
2022-10-06T06:23:56.831Z,88.568115
2022-10-06T06:25:05.506Z,88.73291
2022-10-06T06:26:14.207Z,88.62915
2022-10-06T06:27:23.911Z,87.713623
2022-10-06T06:28:33.073Z,87.261963
2022-10-06T06:29:41.246Z,86.547852
2022-10-06T06:30:50.995Z,86.102295
2022-10-06T06:32:00.591Z,85.797119
2022-10-06T06:33:09.305Z,84.942627
2022-10-06T06:34:17.987Z,84.942627
2022-10-06T06:35:26.660Z,84.698486
2022-10-06T06:36:36.308Z,84.088135
2022-10-06T06:37:46.000Z,83.679199
2022-10-06T06:38:54.738Z,83.129883
2022-10-06T06:40:04.408Z,82.727051
2022-10-06T06:41:14.166Z,82.421875
2022-10-06T06:42:22.846Z,81.768799
2022-10-06T06:43:32.875Z,81.567383
2022-10-06T06:44:41.220Z,81.768799
2022-10-06T06:45:49.907Z,81.567383
2022-10-06T06:46:59.543Z,81.329346
2022-10-06T06:48:07.206Z,81.329346
2022-10-06T06:49:14.875Z,80.780029
2022-10-06T06:50:24.690Z,80.780029
2022-10-06T06:51:33.361Z,80.169678
2022-10-06T06:52:42.063Z,79.559326
2022-10-06T06:53:51.731Z,79.968262
2022-10-06T06:55:00.539Z,79.864502
2022-10-06T06:56:10.124Z,79.663086
2022-10-06T06:57:18.798Z,80.029297
2022-10-06T06:58:26.873Z,79.931641
2022-10-06T06:59:36.137Z,79.6875
2022-10-06T07:00:44.808Z,79.589844
2022-10-06T07:01:53.541Z,78.570557
2022-10-06T07:03:02.166Z,78.875732
2022-10-06T07:04:11.842Z,79.449463
2022-10-06T07:05:20.499Z,78.637695
2022-10-06T07:06:30.168Z,77.624512
2022-10-06T07:07:38.848Z,78.497314
2022-10-06T07:08:47.510Z,77.587891
2022-10-06T07:09:56.215Z,77.856445
2022-10-06T07:11:05.909Z,77.307129
2022-10-06T07:12:15.558Z,76.159668
2022-10-06T07:13:25.806Z,76.263428
2022-10-06T07:14:34.956Z,75.756836
2022-10-06T07:15:43.649Z,75.109863
2022-10-06T07:16:53.307Z,75.518799
2022-10-06T07:18:00.966Z,75.518799
2022-10-06T07:19:08.801Z,76.025391
2022-10-06T07:20:18.468Z,75.98877
2022-10-06T07:21:27.128Z,75.787354
2022-10-06T07:22:35.816Z,75.646973
2022-10-06T07:23:44.496Z,74.633789
2022-10-06T07:24:54.176Z,74.603271
2022-10-06T07:26:03.851Z,74.261475
2022-10-06T07:27:12.542Z,74.969482
2022-10-06T07:28:22.280Z,74.530029
2022-10-06T07:29:31.905Z,72.949219
2022-10-06T07:30:41.589Z,71.801758
2022-10-06T07:31:51.259Z,70.6604
2022-10-06T07:32:59.929Z,70.355225
2022-10-06T07:34:08.618Z,70.19043
2022-10-06T07:35:18.349Z,70.288086
2022-10-06T07:36:26.164Z,70.861816
2022-10-06T07:37:33.812Z,70.928955
2022-10-06T07:38:43.485Z,70.159912
2022-10-06T07:39:53.171Z,69.787598
2022-10-06T07:41:19.599Z,68.182373
2022-10-06T07:42:13.554Z,66.973877
2022-10-06T07:43:22.259Z,67.205811
2022-10-06T07:44:31.921Z,67.974854
2022-10-06T07:45:39.741Z,70.324707
2022-10-06T07:46:48.261Z,70.928955
2022-10-06T07:47:57.970Z,70.391846
2022-10-06T07:49:06.649Z,69.65332
2022-10-06T07:50:15.342Z,67.706299
2022-10-06T07:51:24.018Z,67.840576
2022-10-06T07:52:32.687Z,68.109131
2022-10-06T07:53:42.530Z,67.706299
2022-10-06T07:54:51.470Z,67.675781
2022-10-06T07:55:59.838Z,67.010498
2022-10-06T07:57:09.517Z,65.875244
2022-10-06T07:58:18.168Z,64.666748
2022-10-06T07:59:27.901Z,64.16626
2022-10-06T08:00:37.572Z,65.17334
2022-10-06T08:01:47.335Z,65.100098
2022-10-06T08:02:56.994Z,65.301514
2022-10-06T08:04:05.619Z,65.301514
2022-10-06T08:05:13.320Z,65.301514
2022-10-06T08:06:22.999Z,64.971924
2022-10-06T08:07:32.667Z,64.599609
2022-10-06T08:08:41.341Z,65.472412
2022-10-06T08:09:51.993Z,65.270996
2022-10-06T08:11:02.060Z,64.337158
2022-10-06T08:12:11.381Z,64.837646
2022-10-06T08:13:19.059Z,63.83667
2022-10-06T08:14:26.752Z,64.135742
2022-10-06T08:15:36.513Z,64.709473
2022-10-06T08:16:46.236Z,64.239502
2022-10-06T08:17:53.911Z,65.142822
2022-10-06T08:19:02.571Z,64.807129
2022-10-06T08:20:11.272Z,64.709473
2022-10-06T08:21:20.960Z,64.208984
2022-10-06T08:22:27.755Z,64.807129
2022-10-06T08:23:37.450Z,63.977051
2022-10-06T08:25:04.614Z,64.575195
2022-10-06T08:25:57.803Z,64.916992
2022-10-06T08:27:06.504Z,63.012695
2022-10-06T08:28:15.273Z,63.110352
2022-10-06T08:29:24.875Z,63.28125
2022-10-06T08:30:34.560Z,62.884521
2022-10-06T08:31:43.319Z,62.780762
2022-10-06T08:32:51.940Z,62.554932
2022-10-06T08:34:01.682Z,62.249756
2022-10-06T08:35:11.310Z,61.82251
2022-10-06T08:36:20.969Z,62.219238
2022-10-06T08:37:30.665Z,61.49292
2022-10-06T08:38:40.363Z,61.621094
2022-10-06T08:39:50.047Z,62.091064
2022-10-06T08:40:57.711Z,61.791992
2022-10-06T08:42:05.404Z,61.889648
2022-10-06T08:43:15.050Z,61.236572
2022-10-06T08:44:23.715Z,60.83374
2022-10-06T08:45:37.619Z,60.931396
2022-10-06T08:46:44.125Z,60.235596
2022-10-06T08:47:52.847Z,60.03418
2022-10-06T08:49:02.512Z,61.102295
2022-10-06T08:50:11.209Z,59.735107
2022-10-06T08:51:19.886Z,60.961914
2022-10-06T08:52:29.556Z,61.022949
2022-10-06T08:53:37.256Z,62.750244
2022-10-06T08:54:45.929Z,62.982178
2022-10-06T08:55:54.599Z,63.250732
2022-10-06T08:57:03.410Z,62.451172
2022-10-06T08:58:13.113Z,63.024902
2022-10-06T08:59:20.853Z,62.390137
2022-10-06T09:00:27.524Z,61.834717
2022-10-06T09:01:37.258Z,61.004639
2022-10-06T09:02:46.027Z,59.680176
2022-10-06T09:03:55.700Z,59.222412
2022-10-06T09:05:05.339Z,59.490967
2022-10-06T09:06:15.009Z,58.624268
2022-10-06T09:07:22.694Z,59.320068
2022-10-06T09:08:31.405Z,58.59375
2022-10-06T09:09:41.076Z,57.873535
2022-10-06T09:10:49.739Z,57.073975
2022-10-06T09:11:59.410Z,58.764648
2022-10-06T09:13:09.086Z,59.362793
2022-10-06T09:14:17.789Z,58.441162
2022-10-06T09:15:27.529Z,56.225586
2022-10-06T09:16:36.228Z,56.921387
2022-10-06T09:17:45.905Z,55.999756
2022-10-06T09:19:08.027Z,56.225586
2022-10-06T09:20:06.272Z,57.714844
2022-10-06T09:21:14.934Z,56.622314
2022-10-06T09:22:24.596Z,56.695557
2022-10-06T09:23:33.269Z,57.019043
2022-10-06T09:24:47.066Z,55.529785
2022-10-06T09:25:52.802Z,56.25
2022-10-06T09:27:01.499Z,57.348633
2022-10-06T09:28:11.250Z,57.348633
2022-10-06T09:29:18.915Z,56.225586
2022-10-06T09:30:28.671Z,56.793213
2022-10-06T09:31:38.451Z,56.567383
2022-10-06T09:32:48.081Z,56.793213
2022-10-06T09:33:56.822Z,56.072998
2022-10-06T09:35:05.510Z,55.377197
2022-10-06T09:36:14.220Z,56.768799
2022-10-06T09:37:23.902Z,55.871582
2022-10-06T09:38:33.565Z,56.072998
2022-10-06T09:39:41.245Z,55.847168
2022-10-06T09:40:50.945Z,55.444336
2022-10-06T09:41:59.609Z,56.243896
2022-10-06T09:43:08.304Z,55.914307
2022-10-06T09:44:18.017Z,54.89502
2022-10-06T09:45:26.690Z,55.291748
2022-10-06T09:46:36.389Z,54.968262
2022-10-06T09:47:45.276Z,54.943848
2022-10-06T09:48:53.827Z,54.174805
2022-10-06T09:50:04.467Z,56.060791
2022-10-06T09:51:14.167Z,54.376221
2022-10-06T09:52:22.899Z,54.278564
2022-10-06T09:53:36.831Z,54.003906
2022-10-06T09:54:41.259Z,55.072021
2022-10-06T09:55:49.949Z,55.041504
2022-10-06T09:56:58.614Z,54.351807
2022-10-06T09:58:06.307Z,54.351807
2022-10-06T09:59:16.017Z,54.772949
2022-10-06T10:00:25.851Z,55.566406
2022-10-06T10:01:35.514Z,54.571533
2022-10-06T10:02:44.241Z,54.077148
2022-10-06T10:04:15.865Z,54.547119
2022-10-06T10:05:04.537Z,54.675293
2022-10-06T10:06:12.249Z,55.889893
2022-10-06T10:07:19.916Z,55.987549
2022-10-06T10:08:29.659Z,55.963135
2022-10-06T10:09:39.275Z,56.286621
2022-10-06T10:10:48.981Z,56.811523
2022-10-06T10:11:57.693Z,56.811523
2022-10-06T10:13:06.402Z,56.512451
2022-10-06T10:14:16.109Z,55.914307
2022-10-06T10:15:25.816Z,56.713867
2022-10-06T10:16:33.553Z,56.982422
2022-10-06T10:17:43.222Z,56.756592
2022-10-06T10:18:52.900Z,56.555176
2022-10-06T10:20:01.609Z,55.865479
2022-10-06T10:21:10.307Z,57.15332
2022-10-06T10:22:20.039Z,56.231689
2022-10-06T10:23:31.559Z,56.207275
2022-10-06T10:24:38.444Z,55.761719
2022-10-06T10:25:47.104Z,56.384277
2022-10-06T10:26:56.781Z,57.006836
2022-10-06T10:28:05.508Z,57.60498
2022-10-06T10:29:15.272Z,58.331299
2022-10-06T10:30:24.951Z,58.728027
2022-10-06T10:31:33.667Z,57.775879
2022-10-06T10:32:43.314Z,57.751465
2022-10-06T10:33:59.134Z,57.775879
2022-10-06T10:35:00.767Z,57.678223
2022-10-06T10:36:10.356Z,58.148193
2022-10-06T10:37:19.048Z,57.751465
2022-10-06T10:38:27.753Z,57.226562
2022-10-06T10:39:36.424Z,56.402588
2022-10-06T10:40:45.188Z,57.000732
2022-10-06T10:41:54.873Z,56.005859
2022-10-06T10:43:03.568Z,56.207275
2022-10-06T10:44:12.274Z,56.47583
2022-10-06T10:45:21.944Z,55.755615
2022-10-06T10:46:30.833Z,54.467773
2022-10-06T10:47:39.496Z,54.370117
2022-10-06T10:48:48.142Z,55.657959
2022-10-06T10:49:56.852Z,55.432129
2022-10-06T10:51:06.553Z,55.529785
2022-10-06T10:52:15.275Z,53.851318
2022-10-06T10:53:23.990Z,54.669189
2022-10-06T10:54:33.677Z,54.766846
2022-10-06T10:55:42.351Z,55.285645
2022-10-06T10:56:52.077Z,56.378174
2022-10-06T10:58:01.839Z,56.402588
2022-10-06T10:59:11.499Z,57.550049
2022-10-06T11:00:21.205Z,58.642578
2022-10-06T11:01:29.897Z,57.550049
2022-10-06T11:02:39.603Z,57.580566
2022-10-06T11:03:48.350Z,58.996582
2022-10-06T11:04:58.316Z,59.649658
2022-10-06T11:06:07.716Z,61.499023
2022-10-06T11:07:16.382Z,62.097168
2022-10-06T11:08:24.074Z,62.194824
2022-10-06T11:09:32.774Z,61.694336
2022-10-06T11:10:42.443Z,61.993408
2022-10-06T11:11:52.539Z,62.097168
2022-10-06T11:12:59.827Z,62.524414
2022-10-06T11:14:08.473Z,63.018799
2022-10-06T11:15:18.175Z,63.452148
2022-10-06T11:16:26.887Z,63.348389
2022-10-06T11:17:35.631Z,64.044189
2022-10-06T11:18:44.348Z,63.153076
2022-10-06T11:19:53.088Z,63.946533
2022-10-06T11:21:02.881Z,62.95166
2022-10-06T11:22:10.545Z,63.452148
2022-10-06T11:23:18.215Z,63.482666
2022-10-06T11:24:27.887Z,64.575195
2022-10-06T11:25:37.570Z,64.4104
2022-10-06T11:26:47.316Z,64.709473
2022-10-06T11:27:56.151Z,64.538574
2022-10-06T11:29:04.799Z,64.935303
2022-10-06T11:30:14.484Z,65.234375
2022-10-06T11:31:23.107Z,65.338135
2022-10-06T11:32:32.038Z,65.234375
2022-10-06T11:33:41.730Z,65.338135
2022-10-06T11:34:50.435Z,64.935303
2022-10-06T11:35:59.093Z,64.935303
2022-10-06T11:37:07.786Z,64.605713
2022-10-06T11:38:16.512Z,64.343262
2022-10-06T11:39:26.209Z,63.421631
2022-10-06T11:40:33.889Z,62.322998
2022-10-06T11:41:42.577Z,63.220215
2022-10-06T11:42:52.288Z,62.420654
2022-10-06T11:44:00.998Z,62.860107
2022-10-06T11:45:09.729Z,61.309814
2022-10-06T11:46:19.661Z,60.852051
2022-10-06T11:47:35.249Z,59.112549
2022-10-06T11:48:40.056Z,59.082031
2022-10-06T11:49:47.745Z,58.258057
2022-10-06T11:50:55.478Z,57.635498
2022-10-06T11:52:07.985Z,56.518555
2022-10-06T11:53:14.837Z,57.312012
2022-10-06T11:54:24.520Z,56.097412
2022-10-06T11:55:33.247Z,55.255127
2022-10-06T11:56:42.969Z,55.749512
2022-10-06T11:57:51.690Z,54.510498
2022-10-06T11:58:59.432Z,54.3396
2022-10-06T12:00:07.143Z,55.505371
2022-10-06T12:01:16.877Z,57.342529
2022-10-06T12:02:26.687Z,58.258057
2022-10-06T12:03:35.248Z,57.836914
2022-10-06T12:04:42.963Z,57.019043
2022-10-06T12:05:56.961Z,56.890869
2022-10-06T12:07:02.430Z,55.578613
2022-10-06T12:08:11.118Z,55.108643
2022-10-06T12:09:19.815Z,55.682373
2022-10-06T12:10:29.513Z,57.922363
2022-10-06T12:11:39.197Z,59.234619
2022-10-06T12:13:05.659Z,59.564209
2022-10-06T12:15:06.315Z,60.388184
2022-10-06T12:17:31.629Z,62.164307
2022-10-06T12:18:39.377Z,62.06665
2022-10-06T12:19:49.055Z,62.005615
2022-10-06T12:20:57.776Z,60.827637
2022-10-06T12:22:06.434Z,59.051514
2022-10-06T12:23:16.116Z,57.385254
2022-10-06T12:24:24.822Z,55.718994
2022-10-06T12:25:34.493Z,54.58374
2022-10-06T12:26:42.169Z,54.510498
2022-10-06T12:27:49.826Z,53.448486
2022-10-06T12:28:59.502Z,54.266357
2022-10-06T12:30:08.220Z,54.882812
2022-10-06T12:31:18.365Z,55.206299
2022-10-06T12:32:27.703Z,55.603027
2022-10-06T12:33:37.312Z,56.072998
2022-10-06T12:34:47.013Z,55.853271
2022-10-06T12:35:55.859Z,57.324219
2022-10-06T12:37:03.529Z,58.117676
2022-10-06T12:38:13.216Z,58.374023
2022-10-06T12:39:21.886Z,59.320068
2022-10-06T12:40:30.585Z,60.839844
2022-10-06T12:41:39.343Z,61.694336
2022-10-06T12:42:48.024Z,62.62207
2022-10-06T12:43:57.730Z,63.220215
2022-10-06T12:45:05.440Z,62.432861
2022-10-06T12:46:14.170Z,60.430908
2022-10-06T12:47:23.818Z,58.880615
2022-10-06T12:48:32.546Z,59.606934
2022-10-06T12:49:42.211Z,61.181641
2022-10-06T12:50:50.926Z,62.5
2022-10-06T12:52:01.571Z,62.432861
2022-10-06T12:53:10.304Z,63.360596
2022-10-06T12:54:18.046Z,63.317871
2022-10-06T12:55:26.720Z,64.642334
2022-10-06T12:56:36.477Z,65.374756
2022-10-06T12:57:43.134Z,66.003418
2022-10-06T12:58:52.875Z,66.101074
2022-10-06T13:00:02.538Z,66.235352
2022-10-06T13:01:11.279Z,67.163086
2022-10-06T13:02:19.953Z,67.364502
2022-10-06T13:03:28.557Z,68.261719
2022-10-06T13:04:38.311Z,67.462158
2022-10-06T13:05:47.999Z,67.86499
2022-10-06T13:06:57.699Z,67.962646
2022-10-06T13:08:08.365Z,67.76123
2022-10-06T13:09:17.052Z,67.565918
2022-10-06T13:10:26.860Z,67.529297
2022-10-06T13:11:34.595Z,64.941406
2022-10-06T13:12:44.283Z,64.941406